Time,TemperatureF,DewpointF,PressureIn,WindDirection,WindDirectionDegrees,WindSpeedMPH,WindSpeedGustMPH,Humidity,HourlyPrecipIn,Conditions,Clouds,dailyrainin,SoftwareType,DateUTC
2013-11-01 00:06:00,57.0,47.0,29.89,SSW,203,0.0,0.0,70,0.00,,,0.00,weatherlink.com 1.10,2013-11-01 05:06:00,
2013-11-01 00:21:00,56.8,48.0,29.89,SSW,201,1.0,2.0,72,0.00,,,0.00,weatherlink.com 1.10,2013-11-01 05:21:00,
2013-11-01 00:36:00,56.7,48.0,29.88,SSW,200,1.0,2.0,73,0.00,,,0.00,weatherlink.com 1.10,2013-11-01 05:36:00,
2013-11-01 00:51:00,56.8,47.0,29.88,SW,222,3.0,4.0,70,0.00,,,0.00,weatherlink.com 1.10,2013-11-01 05:51:00,
2013-11-01 01:06:00,56.9,47.0,29.88,SW,214,3.0,4.0,69,0.00,,,0.00,weatherlink.com 1.10,2013-11-01 06:06:00,
2013-11-01 01:21:00,56.8,47.0,29.88,SW,217,1.0,4.0,69,0.00,,,0.00,weatherlink.com 1.10,2013-11-01 06:21:00,
2013-11-01 01:36:00,56.1,46.0,29.87,SSW,210,1.0,1.0,70,0.00,,,0.00,weatherlink.com 1.10,2013-11-01 06:36:00,
2013-11-01 01:51:00,56.0,47.0,29.87,SSW,208,0.0,3.0,71,0.00,,,0.00,weatherlink.com 1.10,2013-11-01 06:51:00,
2013-11-01 02:06:00,55.7,46.0,29.86,SSW,210,1.0,2.0,71,0.00,,,0.00,weatherlink.com 1.10,2013-11-01 07:06:00,
2013-11-01 02:21:00,55.6,47.0,29.87,SW,225,0.0,2.0,72,0.00,,,0.00,weatherlink.com 1.10,2013-11-01 07:21:00,
2013-11-01 02:36:00,54.8,46.0,29.86,SSW,200,1.0,2.0,73,0.00,,,0.00,weatherlink.com 1.10,2013-11-01 07:36:00,
2013-11-01 02:51:00,55.0,46.0,29.87,SSW,203,3.0,4.0,72,0.00,,,0.00,weatherlink.com 1.10,2013-11-01 07:51:00,
2013-11-01 03:06:00,54.6,46.0,29.86,SSW,196,2.0,4.0,73,0.00,,,0.00,weatherlink.com 1.10,2013-11-01 08:06:00,
2013-11-01 03:21:00,54.4,46.0,29.86,SSW,211,3.0,4.0,74,0.00,,,0.00,weatherlink.com 1.10,2013-11-01 08:21:00,
2013-11-01 03:36:00,54.6,46.0,29.86,SW,214,3.0,5.0,73,0.00,,,0.00,weatherlink.com 1.10,2013-11-01 08:36:00,
2013-11-01 03:51:00,54.6,46.0,29.86,SW,224,3.0,5.0,72,0.00,,,0.00,weatherlink.com 1.10,2013-11-01 08:51:00,
2013-11-01 04:07:00,54.7,46.0,29.85,SW,221,3.0,4.0,72,0.00,,,0.00,weatherlink.com 1.10,2013-11-01 09:07:00,
2013-11-01 04:22:00,54.2,46.0,29.85,SW,217,1.0,3.0,74,0.00,,,0.00,weatherlink.com 1.10,2013-11-01 09:22:00,
2013-11-01 04:37:00,53.8,46.0,29.85,SSW,210,2.0,4.0,74,0.00,,,0.00,weatherlink.com 1.10,2013-11-01 09:37:00,
2013-11-01 04:52:00,53.3,46.0,29.85,SW,218,1.0,3.0,76,0.00,,,0.00,weatherlink.com 1.10,2013-11-01 09:52:00,
2013-11-01 05:07:00,52.7,46.0,29.85,SW,219,1.0,1.0,77,0.00,,,0.00,weatherlink.com 1.10,2013-11-01 10:07:00,
2013-11-01 05:22:00,53.3,46.0,29.85,SSW,212,2.0,4.0,75,0.00,,,0.00,weatherlink.com 1.10,2013-11-01 10:22:00,
2013-11-01 05:37:00,53.2,46.0,29.85,SW,215,1.0,2.0,76,0.00,,,0.00,weatherlink.com 1.10,2013-11-01 10:37:00,
2013-11-01 05:52:00,53.5,45.0,29.85,SW,217,2.0,3.0,74,0.00,,,0.00,weatherlink.com 1.10,2013-11-01 10:52:00,
2013-11-01 06:07:00,53.3,46.0,29.86,SW,217,4.0,4.0,75,0.00,,,0.00,weatherlink.com 1.10,2013-11-01 11:07:00,
2013-11-01 06:22:00,53.4,45.0,29.86,SW,222,1.0,4.0,74,0.00,,,0.00,weatherlink.com 1.10,2013-11-01 11:22:00,
2013-11-01 06:37:00,53.3,46.0,29.86,SW,219,2.0,2.0,75,0.00,,,0.00,weatherlink.com 1.10,2013-11-01 11:37:00,
2013-11-01 06:52:00,52.7,45.0,29.86,SSW,210,0.0,3.0,76,0.00,,,0.00,weatherlink.com 1.10,2013-11-01 11:52:00,
2013-11-01 07:07:00,52.3,45.0,29.86,SSW,193,1.0,4.0,77,0.00,,,0.00,weatherlink.com 1.10,2013-11-01 12:07:00,
2013-11-01 07:22:00,52.2,45.0,29.87,South,190,0.0,4.0,77,0.00,,,0.00,weatherlink.com 1.10,2013-11-01 12:22:00,
2013-11-01 07:37:00,52.3,45.0,29.87,SW,214,1.0,5.0,77,0.00,,,0.00,weatherlink.com 1.10,2013-11-01 12:37:00,
2013-11-01 07:52:00,52.1,45.0,29.87,SSE,157,3.0,6.0,78,0.00,,,0.00,weatherlink.com 1.10,2013-11-01 12:52:00,
2013-11-01 08:07:00,52.1,46.0,29.88,South,185,2.0,5.0,79,0.00,,,0.00,weatherlink.com 1.10,2013-11-01 13:07:00,
2013-11-01 08:22:00,53.4,47.0,29.88,SSE,163,2.0,5.0,78,0.00,,,0.00,weatherlink.com 1.10,2013-11-01 13:22:00,
2013-11-01 08:37:00,54.8,48.0,29.89,SSW,193,3.0,6.0,77,0.00,,,0.00,weatherlink.com 1.10,2013-11-01 13:37:00,
2013-11-01 08:52:00,56.4,48.0,29.89,SSW,194,3.0,6.0,74,0.00,,,0.00,weatherlink.com 1.10,2013-11-01 13:52:00,
2013-11-01 09:07:00,57.6,49.0,29.89,South,190,4.0,7.0,72,0.00,,,0.00,weatherlink.com 1.10,2013-11-01 14:07:00,
2013-11-01 09:22:00,58.8,49.0,29.90,South,184,3.0,8.0,70,0.00,,,0.00,weatherlink.com 1.10,2013-11-01 14:22:00,
2013-11-01 09:37:00,59.9,49.0,29.90,South,172,5.0,7.0,67,0.00,,,0.00,weatherlink.com 1.10,2013-11-01 14:37:00,
2013-11-01 09:52:00,61.3,49.0,29.90,South,181,2.0,8.0,65,0.00,,,0.00,weatherlink.com 1.10,2013-11-01 14:52:00,
2013-11-01 10:07:00,62.7,49.0,29.90,SSW,210,8.0,10.0,62,0.00,,,0.00,weatherlink.com 1.10,2013-11-01 15:07:00,
2013-11-01 10:22:00,63.6,49.0,29.90,SSE,158,5.0,10.0,60,0.00,,,0.00,weatherlink.com 1.10,2013-11-01 15:22:00,
2013-11-01 10:37:00,64.7,50.0,29.90,SSW,195,4.0,11.0,59,0.00,,,0.00,weatherlink.com 1.10,2013-11-01 15:37:00,
2013-11-01 10:52:00,66.1,49.0,29.89,SSE,153,5.0,10.0,55,0.00,,,0.00,weatherlink.com 1.10,2013-11-01 15:52:00,
2013-11-01 11:08:00,67.4,48.0,29.89,South,181,8.0,15.0,50,0.00,,,0.00,weatherlink.com 1.10,2013-11-01 16:08:00,
2013-11-01 11:23:00,68.1,48.0,29.89,SSE,160,12.0,18.0,49,0.00,,,0.00,weatherlink.com 1.10,2013-11-01 16:23:00,
2013-11-01 11:38:00,68.8,49.0,29.88,SSE,160,11.0,15.0,50,0.00,,,0.00,weatherlink.com 1.10,2013-11-01 16:38:00,
2013-11-01 11:53:00,69.4,49.0,29.87,SSW,209,7.0,14.0,48,0.00,,,0.00,weatherlink.com 1.10,2013-11-01 16:53:00,
2013-11-01 12:08:00,70.6,49.0,29.87,SSE,156,6.0,15.0,46,0.00,,,0.00,weatherlink.com 1.10,2013-11-01 17:08:00,
2013-11-01 12:23:00,71.9,49.0,29.87,SE,124,5.0,13.0,44,0.00,,,0.00,weatherlink.com 1.10,2013-11-01 17:23:00,
2013-11-01 12:38:00,72.5,48.0,29.86,SW,214,7.0,13.0,42,0.00,,,0.00,weatherlink.com 1.10,2013-11-01 17:38:00,
2013-11-01 12:53:00,72.8,48.0,29.86,SSW,212,8.0,16.0,42,0.00,,,0.00,weatherlink.com 1.10,2013-11-01 17:53:00,
2013-11-01 13:08:00,72.9,48.0,29.86,SSE,163,8.0,12.0,42,0.00,,,0.00,weatherlink.com 1.10,2013-11-01 18:08:00,
2013-11-01 13:23:00,72.9,48.0,29.85,SW,235,11.0,14.0,42,0.00,,,0.00,weatherlink.com 1.10,2013-11-01 18:23:00,
2013-11-01 13:38:00,72.9,50.0,29.85,WSW,249,7.0,13.0,44,0.00,,,0.00,weatherlink.com 1.10,2013-11-01 18:38:00,
2013-11-01 13:53:00,73.3,50.0,29.84,SSW,198,3.0,11.0,44,0.00,,,0.00,weatherlink.com 1.10,2013-11-01 18:53:00,
2013-11-01 14:08:00,72.9,51.0,29.84,WSW,250,6.0,15.0,46,0.00,,,0.00,weatherlink.com 1.10,2013-11-01 19:08:00,
2013-11-01 14:23:00,74.3,49.0,29.83,WSW,242,5.0,9.0,41,0.00,,,0.00,weatherlink.com 1.10,2013-11-01 19:23:00,
2013-11-01 14:38:00,74.4,48.0,29.83,WSW,242,6.0,8.0,40,0.00,,,0.00,weatherlink.com 1.10,2013-11-01 19:38:00,
2013-11-01 14:53:00,74.3,49.0,29.84,West,262,3.0,8.0,41,0.00,,,0.00,weatherlink.com 1.10,2013-11-01 19:53:00,
2013-11-01 15:08:00,74.8,49.0,29.83,West,259,4.0,6.0,40,0.00,,,0.00,weatherlink.com 1.10,2013-11-01 20:08:00,
2013-11-01 15:23:00,75.2,49.0,29.83,SW,219,0.0,7.0,40,0.00,,,0.00,weatherlink.com 1.10,2013-11-01 20:23:00,
2013-11-01 15:38:00,76.3,48.0,29.83,WNW,293,2.0,4.0,37,0.00,,,0.00,weatherlink.com 1.10,2013-11-01 20:38:00,
2013-11-01 15:53:00,76.2,48.0,29.83,West,281,1.0,6.0,37,0.00,,,0.00,weatherlink.com 1.10,2013-11-01 20:53:00,
2013-11-01 16:08:00,75.5,48.0,29.83,South,172,2.0,5.0,38,0.00,,,0.00,weatherlink.com 1.10,2013-11-01 21:08:00,
2013-11-01 16:23:00,74.2,49.0,29.84,NNW,330,1.0,6.0,41,0.00,,,0.00,weatherlink.com 1.10,2013-11-01 21:23:00,
2013-11-01 16:38:00,74.0,49.0,29.84,NE,39,3.0,4.0,41,0.00,,,0.00,weatherlink.com 1.10,2013-11-01 21:38:00,
2013-11-01 16:53:00,73.6,48.0,29.85,NNW,347,1.0,5.0,41,0.00,,,0.00,weatherlink.com 1.10,2013-11-01 21:53:00,
2013-11-01 17:08:00,73.4,48.0,29.85,NNW,345,4.0,6.0,41,0.00,,,0.00,weatherlink.com 1.10,2013-11-01 22:08:00,
2013-11-01 17:23:00,73.8,49.0,29.86,NNW,335,6.0,10.0,41,0.00,,,0.00,weatherlink.com 1.10,2013-11-01 22:23:00,
2013-11-01 17:38:00,74.0,49.0,29.87,North,350,9.0,10.0,41,0.00,,,0.00,weatherlink.com 1.10,2013-11-01 22:38:00,
2013-11-01 17:53:00,73.8,44.0,29.88,NW,311,5.0,12.0,35,0.00,,,0.00,weatherlink.com 1.10,2013-11-01 22:53:00,
2013-11-01 18:08:00,72.9,44.0,29.89,NNW,342,5.0,12.0,35,0.00,,,0.00,weatherlink.com 1.10,2013-11-01 23:08:00,
2013-11-01 18:23:00,71.9,44.0,29.90,NW,316,6.0,10.0,37,0.00,,,0.00,weatherlink.com 1.10,2013-11-01 23:23:00,
2013-11-01 18:38:00,70.9,45.0,29.91,NW,326,4.0,7.0,39,0.00,,,0.00,weatherlink.com 1.10,2013-11-01 23:38:00,
2013-11-01 18:53:00,70.2,47.0,29.93,NNW,336,6.0,-999.0,44,-99.99,,,0.00,weatherlink.com 1.10,2013-11-01 23:53:00,
2013-11-01 19:08:00,69.8,48.0,29.94,North,355,3.0,8.0,46,0.00,,,0.00,weatherlink.com 1.10,2013-11-02 00:08:00,
2013-11-01 19:24:00,69.3,48.0,29.95,NNW,333,4.0,8.0,47,0.00,,,0.00,weatherlink.com 1.10,2013-11-02 00:24:00,
2013-11-01 19:39:00,68.7,48.0,29.96,NNE,29,5.0,6.0,47,0.00,,,0.00,weatherlink.com 1.10,2013-11-02 00:39:00,
2013-11-01 19:54:00,68.1,48.0,29.97,NE,44,3.0,6.0,49,0.00,,,0.00,weatherlink.com 1.10,2013-11-02 00:54:00,
2013-11-01 20:09:00,67.7,48.0,29.98,NNW,341,3.0,6.0,50,0.00,,,0.00,weatherlink.com 1.10,2013-11-02 01:09:00,
2013-11-01 20:24:00,67.3,48.0,29.98,NNE,12,7.0,8.0,50,0.00,,,0.00,weatherlink.com 1.10,2013-11-02 01:24:00,
2013-11-01 20:39:00,67.3,47.0,30.00,NNW,340,4.0,10.0,49,0.00,,,0.00,weatherlink.com 1.10,2013-11-02 01:39:00,
2013-11-01 20:54:00,67.3,46.0,30.01,NNW,345,7.0,9.0,47,0.00,,,0.00,weatherlink.com 1.10,2013-11-02 01:54:00,
2013-11-01 21:09:00,66.9,46.0,30.02,NW,312,3.0,10.0,48,0.00,,,0.00,weatherlink.com 1.10,2013-11-02 02:09:00,
2013-11-01 21:24:00,66.3,47.0,30.03,NW,307,2.0,9.0,50,0.00,,,0.00,weatherlink.com 1.10,2013-11-02 02:24:00,
2013-11-01 21:39:00,65.6,47.0,30.04,NNW,348,4.0,9.0,51,0.00,,,0.00,weatherlink.com 1.10,2013-11-02 02:39:00,
2013-11-01 21:54:00,64.9,47.0,30.05,NNW,332,4.0,-999.0,52,-99.99,,,0.00,weatherlink.com 1.10,2013-11-02 02:54:00,
2013-11-01 22:09:00,64.4,46.0,30.06,NW,326,6.0,7.0,52,0.00,,,0.00,weatherlink.com 1.10,2013-11-02 03:09:00,
2013-11-01 22:24:00,64.4,46.0,30.07,NE,34,7.0,11.0,51,0.00,,,0.00,weatherlink.com 1.10,2013-11-02 03:24:00,
2013-11-01 22:39:00,64.1,45.0,30.08,North,352,4.0,10.0,50,0.00,,,0.00,weatherlink.com 1.10,2013-11-02 03:39:00,
2013-11-01 22:54:00,64.1,44.0,30.09,North,360,9.0,12.0,48,0.00,,,0.00,weatherlink.com 1.10,2013-11-02 03:54:00,
2013-11-01 23:09:00,63.8,44.0,30.10,North,353,3.0,12.0,48,0.00,,,0.00,weatherlink.com 1.10,2013-11-02 04:09:00,
2013-11-01 23:24:00,63.3,43.0,30.10,NNE,21,4.0,8.0,48,0.00,,,0.00,weatherlink.com 1.10,2013-11-02 04:24:00,
2013-11-01 23:39:00,63.0,42.0,30.11,North,5,4.0,11.0,47,0.00,,,0.00,weatherlink.com 1.10,2013-11-02 04:39:00,
2013-11-01 23:54:00,62.6,42.0,30.11,NNW,347,7.0,10.0,47,0.00,,,0.00,weatherlink.com 1.10,2013-11-02 04:54:00,